createdAt,value
2017-03-09T00:00:24.640Z,1010.88
2017-03-09T00:01:24.645Z,1010.91
2017-03-09T00:02:24.651Z,1010.95
2017-03-09T00:03:24.660Z,1010.96
2017-03-09T00:04:24.663Z,1010.98
2017-03-09T00:05:24.671Z,1010.97
2017-03-09T00:06:24.678Z,1010.97
2017-03-09T00:07:24.735Z,1010.97
2017-03-09T00:08:24.992Z,1010.97
2017-03-09T00:09:24.696Z,1010.96
2017-03-09T00:10:24.754Z,1010.95
2017-03-09T00:11:24.762Z,1010.93
2017-03-09T00:12:24.717Z,1010.97
2017-03-09T00:13:24.724Z,1010.99
2017-03-09T00:14:24.732Z,1010.98
2017-03-09T00:15:24.786Z,1011.01
2017-03-09T00:16:24.743Z,1011.02
2017-03-09T00:17:24.799Z,1011.03
2017-03-09T00:18:25.108Z,1011.04
2017-03-09T00:19:24.764Z,1011.03
2017-03-09T00:20:24.770Z,1011.04
2017-03-09T00:21:24.776Z,1011.05
2017-03-09T00:22:24.784Z,1011.07
2017-03-09T00:23:24.789Z,1011.06
2017-03-09T00:24:24.797Z,1011.13
2017-03-09T00:25:24.804Z,1011.13
2017-03-09T00:26:24.808Z,1011.15
2017-03-09T00:27:24.818Z,1011.17
2017-03-09T00:28:24.823Z,1011.2
2017-03-09T00:29:24.830Z,1011.23
2017-03-09T00:30:24.841Z,1011.19
2017-03-09T00:31:24.842Z,1011.2
2017-03-09T00:32:24.898Z,1011.25
2017-03-09T00:33:24.906Z,1011.22
2017-03-09T00:34:24.862Z,1011.27
2017-03-09T00:35:24.870Z,1011.31
2017-03-09T00:36:24.875Z,1011.33
2017-03-09T00:37:24.881Z,1011.33
2017-03-09T00:38:24.889Z,1011.32
2017-03-09T00:39:24.894Z,1011.3
2017-03-09T00:40:25.352Z,1011.27
2017-03-09T00:41:24.907Z,1011.31
2017-03-09T00:42:24.965Z,1011.27
2017-03-09T00:43:24.920Z,1011.29
2017-03-09T00:44:24.929Z,1011.27
2017-03-09T00:45:24.984Z,1011.3
2017-03-09T00:46:24.939Z,1011.29
2017-03-09T00:47:24.997Z,1011.34
2017-03-09T00:48:24.956Z,1011.31
2017-03-09T00:49:25.011Z,1011.38
2017-03-09T00:50:24.968Z,1011.34
2017-03-09T00:51:25.023Z,1011.36
2017-03-09T00:52:24.980Z,1011.38
2017-03-09T00:53:24.987Z,1011.43
2017-03-09T00:54:24.993Z,1011.44
2017-03-09T00:55:25.148Z,1011.52
2017-03-09T00:56:25.004Z,1011.5
2017-03-09T00:57:25.062Z,1011.51
2017-03-09T00:58:25.019Z,1011.54
2017-03-09T00:59:25.023Z,1011.51
2017-03-09T01:00:25.033Z,1011.54
2017-03-09T01:01:25.037Z,1011.55
2017-03-09T01:02:25.045Z,1011.55
2017-03-09T01:03:25.050Z,1011.6
2017-03-09T01:04:26.209Z,1011.6
2017-03-09T01:05:25.063Z,1011.61
2017-03-09T01:06:25.071Z,1011.65
2017-03-09T01:07:25.076Z,1011.66
2017-03-09T01:08:25.082Z,1011.71
2017-03-09T01:09:25.090Z,1011.71
2017-03-09T01:10:25.095Z,1011.69
2017-03-09T01:11:25.105Z,1011.66
2017-03-09T01:12:25.109Z,1011.67
2017-03-09T01:13:25.166Z,1011.65
2017-03-09T01:14:25.122Z,1011.64
2017-03-09T01:15:25.180Z,1011.69
2017-03-09T01:16:25.185Z,1011.69
2017-03-09T01:17:25.143Z,1011.73
2017-03-09T01:18:25.150Z,1011.73
2017-03-09T01:19:25.156Z,1011.74
2017-03-09T01:20:25.164Z,1011.73
2017-03-09T01:21:25.169Z,1011.73
2017-03-09T01:22:26.627Z,1011.75
2017-03-09T01:23:25.181Z,1011.73
2017-03-09T01:24:25.240Z,1011.71
2017-03-09T01:25:25.194Z,1011.74
2017-03-09T01:26:25.802Z,1011.75
2017-03-09T01:27:25.207Z,1011.73
2017-03-09T01:28:25.214Z,1011.71
2017-03-09T01:29:25.222Z,1011.71
2017-03-09T01:30:25.228Z,1011.7
2017-03-09T01:31:25.284Z,1011.76
2017-03-09T01:32:25.390Z,1011.77
2017-03-09T01:33:25.296Z,1011.74
2017-03-09T01:34:25.304Z,1011.77
2017-03-09T01:35:25.260Z,1011.75
2017-03-09T01:36:25.316Z,1011.77
2017-03-09T01:37:25.323Z,1011.73
2017-03-09T01:38:25.279Z,1011.73
2017-03-09T01:39:25.336Z,1011.75
2017-03-09T01:40:25.293Z,1011.72
2017-03-09T01:41:25.753Z,1011.74
2017-03-09T01:42:25.355Z,1011.72
2017-03-09T01:43:25.365Z,1011.71
2017-03-09T01:44:25.320Z,1011.71
2017-03-09T01:45:25.325Z,1011.71
2017-03-09T01:46:25.380Z,1011.68
2017-03-09T01:47:25.337Z,1011.71
2017-03-09T01:48:25.345Z,1011.74
2017-03-09T01:49:25.353Z,1011.74
2017-03-09T01:50:25.356Z,1011.72
2017-03-09T01:51:25.363Z,1011.71
2017-03-09T01:52:25.420Z,1011.72
2017-03-09T01:53:25.377Z,1011.76
2017-03-09T01:54:25.383Z,1011.76
2017-03-09T01:55:25.439Z,1011.75
2017-03-09T01:56:25.397Z,1011.78
2017-03-09T01:57:25.454Z,1011.8
2017-03-09T01:58:25.459Z,1011.81
2017-03-09T01:59:25.416Z,1011.79
2017-03-09T02:00:25.422Z,1011.77
2017-03-09T02:01:25.428Z,1011.71
2017-03-09T02:02:25.501Z,1011.69
2017-03-09T02:03:25.491Z,1011.61
2017-03-09T02:04:25.498Z,1011.6
2017-03-09T02:05:25.507Z,1011.62
2017-03-09T02:06:25.461Z,1011.63
2017-03-09T02:07:25.468Z,1011.64
2017-03-09T02:08:25.474Z,1011.61
2017-03-09T02:09:25.481Z,1011.57
2017-03-09T02:10:25.487Z,1011.56
2017-03-09T02:11:25.495Z,1011.52
2017-03-09T02:12:26.351Z,1011.52
2017-03-09T02:13:25.510Z,1011.52
2017-03-09T02:14:25.513Z,1011.49
2017-03-09T02:15:25.519Z,1011.52
2017-03-09T02:16:25.525Z,1011.49
2017-03-09T02:17:25.532Z,1011.43
2017-03-09T02:18:25.587Z,1011.42
2017-03-09T02:19:25.546Z,1011.39
2017-03-09T02:20:25.552Z,1011.35
2017-03-09T02:21:25.558Z,1011.37
2017-03-09T02:22:25.634Z,1011.34
2017-03-09T02:23:25.570Z,1011.32
2017-03-09T02:24:25.628Z,1011.33
2017-03-09T02:25:25.584Z,1011.36
2017-03-09T02:26:25.593Z,1011.37
2017-03-09T02:27:26.399Z,1011.35
2017-03-09T02:28:25.604Z,1011.33
2017-03-09T02:29:25.610Z,1011.34
2017-03-09T02:30:25.919Z,1011.35
2017-03-09T02:31:25.622Z,1011.35
2017-03-09T02:32:25.631Z,1011.38
2017-03-09T02:33:25.639Z,1011.34
2017-03-09T02:34:25.646Z,1011.35
2017-03-09T02:35:25.698Z,1011.3
2017-03-09T02:36:25.706Z,1011.3
2017-03-09T02:37:25.663Z,1011.25
2017-03-09T02:38:25.668Z,1011.23
2017-03-09T02:39:25.674Z,1011.22
2017-03-09T02:40:25.704Z,1011.28
2017-03-09T02:41:25.738Z,1011.36
2017-03-09T02:42:25.694Z,1011.44
2017-03-09T02:43:25.701Z,1011.49
2017-03-09T02:44:25.708Z,1011.56
2017-03-09T02:45:25.714Z,1011.57
2017-03-09T02:46:25.719Z,1011.63
2017-03-09T02:47:25.726Z,1011.65
2017-03-09T02:48:25.733Z,1011.69
2017-03-09T02:49:25.740Z,1011.7
2017-03-09T02:50:25.796Z,1011.77
2017-03-09T02:51:25.802Z,1011.84
2017-03-09T02:52:25.759Z,1011.86
2017-03-09T02:53:25.766Z,1011.87
2017-03-09T02:54:25.774Z,1011.89
2017-03-09T02:55:25.780Z,1011.92
2017-03-09T02:56:25.785Z,1011.93
2017-03-09T02:57:25.792Z,1011.97
2017-03-09T02:58:26.700Z,1011.94
2017-03-09T02:59:25.856Z,1011.96
2017-03-09T03:00:25.814Z,1011.93
2017-03-09T03:01:25.819Z,1011.98
2017-03-09T03:02:25.824Z,1012
2017-03-09T03:03:25.831Z,1012.01
2017-03-09T03:04:25.837Z,1012.01
2017-03-09T03:05:25.845Z,1011.96
2017-03-09T03:06:25.901Z,1011.97
2017-03-09T03:07:25.857Z,1011.98
2017-03-09T03:08:25.863Z,1011.98
2017-03-09T03:09:25.870Z,1011.99
2017-03-09T03:10:25.877Z,1012.03
2017-03-09T03:11:25.932Z,1012
2017-03-09T03:12:25.890Z,1012.03
2017-03-09T03:13:26.404Z,1011.99
2017-03-09T03:14:25.903Z,1011.98
2017-03-09T03:15:25.908Z,1012
2017-03-09T03:16:25.916Z,1011.99
2017-03-09T03:17:25.923Z,1012.01
2017-03-09T03:18:25.927Z,1011.97
2017-03-09T03:19:25.935Z,1011.97
2017-03-09T03:20:25.942Z,1011.93
2017-03-09T03:21:25.997Z,1011.94
2017-03-09T03:22:25.955Z,1011.91
2017-03-09T03:23:25.962Z,1011.87
2017-03-09T03:24:25.969Z,1011.85
2017-03-09T03:25:25.972Z,1011.84
2017-03-09T03:26:26.031Z,1011.84
2017-03-09T03:27:26.039Z,1011.82
2017-03-09T03:28:25.994Z,1011.83
2017-03-09T03:29:26.001Z,1011.82
2017-03-09T03:30:26.006Z,1011.85
2017-03-09T03:31:26.013Z,1011.82
2017-03-09T03:32:26.071Z,1011.77
2017-03-09T03:33:26.027Z,1011.72
2017-03-09T03:34:26.083Z,1011.66
2017-03-09T03:35:26.190Z,1011.64
2017-03-09T03:36:26.045Z,1011.6
2017-03-09T03:37:26.051Z,1011.61
2017-03-09T03:38:26.058Z,1011.6
2017-03-09T03:39:26.116Z,1011.62
2017-03-09T03:40:26.073Z,1011.59
2017-03-09T03:41:26.130Z,1011.62
2017-03-09T03:42:26.136Z,1011.62
2017-03-09T03:43:26.091Z,1011.6
2017-03-09T03:44:27.199Z,1011.62
2017-03-09T03:45:26.102Z,1011.64
2017-03-09T03:46:26.111Z,1011.61
2017-03-09T03:47:26.166Z,1011.59
2017-03-09T03:48:26.123Z,1011.61
2017-03-09T03:49:26.129Z,1011.58
2017-03-09T03:50:26.187Z,1011.61
2017-03-09T03:51:26.195Z,1011.63
2017-03-09T03:52:26.149Z,1011.69
2017-03-09T03:53:26.155Z,1011.71
2017-03-09T03:54:26.162Z,1011.73
2017-03-09T03:55:26.218Z,1011.75
2017-03-09T03:56:26.225Z,1011.73
2017-03-09T03:57:26.183Z,1011.72
2017-03-09T03:58:26.186Z,1011.69
2017-03-09T03:59:27.245Z,1011.71
2017-03-09T04:00:26.202Z,1011.69
2017-03-09T04:01:26.210Z,1011.66
2017-03-09T04:02:26.261Z,1011.67
2017-03-09T04:03:26.223Z,1011.69
2017-03-09T04:04:26.227Z,1011.67
2017-03-09T04:05:26.234Z,1011.75
2017-03-09T04:06:26.239Z,1011.75
2017-03-09T04:07:26.247Z,1011.76
2017-03-09T04:08:26.252Z,1011.7
2017-03-09T04:09:26.260Z,1011.63
2017-03-09T04:10:26.265Z,1011.62
2017-03-09T04:11:26.273Z,1011.61
2017-03-09T04:12:26.279Z,1011.59
2017-03-09T04:13:26.286Z,1011.6
2017-03-09T04:14:26.292Z,1011.6
2017-03-09T04:15:26.298Z,1011.63
2017-03-09T04:16:26.305Z,1011.66
2017-03-09T04:17:26.311Z,1011.63
2017-03-09T04:18:26.618Z,1011.62
2017-03-09T04:19:26.373Z,1011.6
2017-03-09T04:20:26.380Z,1011.59
2017-03-09T04:21:26.937Z,1011.57
2017-03-09T04:22:26.344Z,1011.56
2017-03-09T04:23:26.351Z,1011.53
2017-03-09T04:24:26.409Z,1011.59
2017-03-09T04:25:26.414Z,1011.6
2017-03-09T04:26:26.421Z,1011.6
2017-03-09T04:27:26.377Z,1011.63
2017-03-09T04:28:26.382Z,1011.7
2017-03-09T04:29:26.390Z,1011.69
2017-03-09T04:30:26.398Z,1011.73
2017-03-09T04:31:26.404Z,1011.69
2017-03-09T04:32:26.458Z,1011.74
2017-03-09T04:33:26.417Z,1011.76
2017-03-09T04:34:26.423Z,1011.72
2017-03-09T04:35:26.430Z,1011.72
2017-03-09T04:36:26.485Z,1011.72
2017-03-09T04:37:26.493Z,1011.74
2017-03-09T04:38:26.449Z,1011.71
2017-03-09T04:39:26.456Z,1011.72
2017-03-09T04:40:26.462Z,1011.66
2017-03-09T04:41:26.469Z,1011.72
2017-03-09T04:42:26.474Z,1011.66
2017-03-09T04:43:26.530Z,1011.61
2017-03-09T04:44:26.486Z,1011.57
2017-03-09T04:45:26.544Z,1011.55
2017-03-09T04:46:26.500Z,1011.53
2017-03-09T04:47:26.556Z,1011.53
2017-03-09T04:48:26.513Z,1011.48
2017-03-09T04:49:26.568Z,1011.42
2017-03-09T04:50:26.527Z,1011.41
2017-03-09T04:51:26.582Z,1011.35
2017-03-09T04:52:26.590Z,1011.31
2017-03-09T04:53:26.594Z,1011.3
2017-03-09T04:54:26.552Z,1011.3
2017-03-09T04:55:26.559Z,1011.36
2017-03-09T04:56:26.613Z,1011.37
2017-03-09T04:57:27.120Z,1011.32
2017-03-09T04:58:26.578Z,1011.36
2017-03-09T04:59:26.583Z,1011.32
2017-03-09T05:00:26.589Z,1011.33
2017-03-09T05:01:26.596Z,1011.27
2017-03-09T05:02:26.652Z,1011.26
2017-03-09T05:03:26.610Z,1011.29
2017-03-09T05:04:26.615Z,1011.29
2017-03-09T05:05:26.622Z,1011.29
2017-03-09T05:06:26.629Z,1011.32
2017-03-09T05:07:27.637Z,1011.32
2017-03-09T05:08:26.640Z,1011.33
2017-03-09T05:09:26.648Z,1011.29
2017-03-09T05:10:26.654Z,1011.29
2017-03-09T05:11:26.662Z,1011.27
2017-03-09T05:12:26.668Z,1011.25
2017-03-09T05:13:27.576Z,1011.26
2017-03-09T05:14:26.731Z,1011.3
2017-03-09T05:15:26.686Z,1011.32
2017-03-09T05:16:26.702Z,1011.37
2017-03-09T05:17:26.751Z,1011.36
2017-03-09T05:18:26.706Z,1011.37
2017-03-09T05:19:26.711Z,1011.37
2017-03-09T05:20:26.769Z,1011.33
2017-03-09T05:21:26.726Z,1011.43
2017-03-09T05:22:26.731Z,1011.41
2017-03-09T05:23:26.739Z,1011.38
2017-03-09T05:24:26.744Z,1011.4
2017-03-09T05:25:26.751Z,1011.38
2017-03-09T05:26:26.807Z,1011.3
2017-03-09T05:27:26.764Z,1011.28
2017-03-09T05:28:26.821Z,1011.24
2017-03-09T05:29:27.332Z,1011.24
2017-03-09T05:30:26.784Z,1011.17
2017-03-09T05:31:26.791Z,1011.14
2017-03-09T05:32:26.799Z,1011.15
2017-03-09T05:33:26.852Z,1011.16
2017-03-09T05:34:26.809Z,1011.18
2017-03-09T05:35:26.817Z,1011.17
2017-03-09T05:36:26.826Z,1011.19
2017-03-09T05:37:26.828Z,1011.21
2017-03-09T05:38:26.833Z,1011.23
2017-03-09T05:39:26.842Z,1011.26
2017-03-09T05:40:27.149Z,1011.24
2017-03-09T05:41:26.854Z,1011.26
2017-03-09T05:42:26.861Z,1011.24
2017-03-09T05:43:26.868Z,1011.27
2017-03-09T05:44:26.974Z,1011.3
2017-03-09T05:45:26.929Z,1011.35
2017-03-09T05:46:26.887Z,1011.4
2017-03-09T05:47:26.893Z,1011.42
2017-03-09T05:48:26.899Z,1011.41
2017-03-09T05:49:26.907Z,1011.42
2017-03-09T05:50:26.913Z,1011.43
2017-03-09T05:51:26.919Z,1011.42
2017-03-09T05:52:26.925Z,1011.42
2017-03-09T05:53:28.101Z,1011.39
2017-03-09T05:54:26.940Z,1011.4
2017-03-09T05:55:26.944Z,1011.37
2017-03-09T05:56:26.953Z,1011.3
2017-03-09T05:57:26.959Z,1011.32
2017-03-09T05:58:26.966Z,1011.3
2017-03-09T05:59:26.970Z,1011.27
2017-03-09T06:00:27.028Z,1011.27
2017-03-09T06:01:27.033Z,1011.22
2017-03-09T06:02:26.990Z,1011.25
2017-03-09T06:03:26.997Z,1011.23
2017-03-09T06:04:27.004Z,1011.27
2017-03-09T06:05:27.060Z,1011.21
2017-03-09T06:06:27.016Z,1011.22
2017-03-09T06:07:27.074Z,1011.22
2017-03-09T06:08:27.029Z,1011.24
2017-03-09T06:09:27.038Z,1011.23
2017-03-09T06:10:27.091Z,1011.17
2017-03-09T06:11:27.049Z,1011.18
2017-03-09T06:12:27.057Z,1011.21
2017-03-09T06:13:27.062Z,1011.22
2017-03-09T06:14:27.117Z,1011.23
2017-03-09T06:15:27.076Z,1011.24
2017-03-09T06:16:27.080Z,1011.23
2017-03-09T06:17:27.135Z,1011.16
2017-03-09T06:18:27.094Z,1011.11
2017-03-09T06:19:27.101Z,1011.1
2017-03-09T06:20:27.157Z,1011.1
2017-03-09T06:21:27.112Z,1011.15
2017-03-09T06:22:27.120Z,1011.14
2017-03-09T06:23:27.176Z,1011.14
2017-03-09T06:24:27.182Z,1011.08
2017-03-09T06:25:27.139Z,1011.09
2017-03-09T06:26:28.114Z,1011.03
2017-03-09T06:27:27.165Z,1011.02
2017-03-09T06:28:27.207Z,1011.04
2017-03-09T06:29:27.164Z,1011.05
2017-03-09T06:30:27.221Z,1011.06
2017-03-09T06:31:27.245Z,1011.13
2017-03-09T06:32:27.183Z,1011.15
2017-03-09T06:33:27.592Z,1011.13
2017-03-09T06:34:27.196Z,1011.12
2017-03-09T06:35:27.202Z,1011.14
2017-03-09T06:36:27.208Z,1011.11
2017-03-09T06:37:27.266Z,1011.17
2017-03-09T06:38:27.274Z,1011.12
2017-03-09T06:39:27.227Z,1011.13
2017-03-09T06:40:27.235Z,1011.16
2017-03-09T06:41:27.242Z,1011.14
2017-03-09T06:42:27.348Z,1011.1
2017-03-09T06:43:27.304Z,1011.1
2017-03-09T06:44:27.261Z,1011.13
2017-03-09T06:45:27.319Z,1011.16
2017-03-09T06:46:27.274Z,1011.17
2017-03-09T06:47:27.280Z,1011.16
2017-03-09T06:48:27.287Z,1011.11
2017-03-09T06:49:27.342Z,1011.07
2017-03-09T06:50:27.299Z,1011.03
2017-03-09T06:51:27.355Z,1011.06
2017-03-09T06:52:27.313Z,1011.04
2017-03-09T06:53:27.319Z,1011.1
2017-03-09T06:54:27.374Z,1011.05
2017-03-09T06:55:27.380Z,1011.06
2017-03-09T06:56:27.338Z,1011.05
2017-03-09T06:57:27.344Z,1011.03
2017-03-09T06:58:27.417Z,1011
2017-03-09T06:59:27.356Z,1011
2017-03-09T07:00:27.415Z,1010.99
2017-03-09T07:01:27.369Z,1010.96
2017-03-09T07:02:27.425Z,1010.92
2017-03-09T07:03:27.458Z,1010.91
2017-03-09T07:04:27.437Z,1010.87
2017-03-09T07:05:27.394Z,1010.94
2017-03-09T07:06:27.401Z,1010.97
2017-03-09T07:07:27.956Z,1010.96
2017-03-09T07:08:27.415Z,1010.98
2017-03-09T07:09:27.471Z,1010.97
2017-03-09T07:10:27.426Z,1010.91
2017-03-09T07:11:27.432Z,1010.9
2017-03-09T07:12:27.489Z,1010.86
2017-03-09T07:13:27.445Z,1010.86
2017-03-09T07:14:27.485Z,1010.79
2017-03-09T07:15:27.459Z,1010.78
2017-03-09T07:16:27.528Z,1010.76
2017-03-09T07:17:27.522Z,1010.7
2017-03-09T07:18:27.478Z,1010.75
2017-03-09T07:19:27.496Z,1010.73
2017-03-09T07:20:27.490Z,1010.72
2017-03-09T07:21:27.495Z,1010.72
2017-03-09T07:22:27.554Z,1010.71
2017-03-09T07:23:27.561Z,1010.69
2017-03-09T07:24:27.562Z,1010.72
2017-03-09T07:25:27.522Z,1010.69
2017-03-09T07:26:27.829Z,1010.69
2017-03-09T07:27:27.583Z,1010.65
2017-03-09T07:28:27.616Z,1010.65
2017-03-09T07:29:27.548Z,1010.64
2017-03-09T07:30:28.162Z,1010.68
2017-03-09T07:31:27.609Z,1010.67
2017-03-09T07:32:27.565Z,1010.68
2017-03-09T07:33:27.572Z,1010.69
2017-03-09T07:34:27.628Z,1010.67
2017-03-09T07:35:27.836Z,1010.69
2017-03-09T07:36:27.591Z,1010.71
2017-03-09T07:37:27.597Z,1010.71
2017-03-09T07:38:27.654Z,1010.71
2017-03-09T07:39:27.706Z,1010.71
2017-03-09T07:40:27.617Z,1010.76
2017-03-09T07:41:27.623Z,1010.75
2017-03-09T07:42:27.697Z,1010.78
2017-03-09T07:43:27.636Z,1010.78
2017-03-09T07:44:27.943Z,1010.83
2017-03-09T07:45:27.698Z,1010.85
2017-03-09T07:46:27.708Z,1010.92
2017-03-09T07:47:27.725Z,1010.91
2017-03-09T07:48:27.746Z,1010.95
2017-03-09T07:49:27.757Z,1010.91
2017-03-09T07:50:27.731Z,1010.87
2017-03-09T07:51:28.097Z,1010.95
2017-03-09T07:52:27.761Z,1010.94
2017-03-09T07:53:27.772Z,1010.91
2017-03-09T07:54:27.708Z,1010.92
2017-03-09T07:55:27.746Z,1010.94
2017-03-09T07:56:27.819Z,1010.9
2017-03-09T07:57:27.753Z,1010.85
2017-03-09T07:58:28.759Z,1010.87
2017-03-09T07:59:27.789Z,1010.83
2017-03-09T08:00:27.798Z,1010.8
2017-03-09T08:01:27.804Z,1010.81
2017-03-09T08:02:28.411Z,1010.76
2017-03-09T08:03:27.767Z,1010.74
2017-03-09T08:04:27.801Z,1010.72
2017-03-09T08:05:27.844Z,1010.77
2017-03-09T08:06:27.837Z,1010.78
2017-03-09T08:07:27.833Z,1010.75
2017-03-09T08:08:27.879Z,1010.73
2017-03-09T08:09:27.898Z,1010.72
2017-03-09T08:10:27.864Z,1010.72
2017-03-09T08:11:27.885Z,1010.68
2017-03-09T08:12:27.919Z,1010.73
2017-03-09T08:13:27.915Z,1010.69
2017-03-09T08:14:27.903Z,1010.67
2017-03-09T08:15:27.847Z,1010.66
2017-03-09T08:16:27.854Z,1010.7
2017-03-09T08:17:27.893Z,1010.69
2017-03-09T08:18:27.935Z,1010.68
2017-03-09T08:19:28.996Z,1010.72
2017-03-09T08:20:27.950Z,1010.73
2017-03-09T08:21:27.890Z,1010.76
2017-03-09T08:22:27.896Z,1010.76
2017-03-09T08:23:27.905Z,1010.74
2017-03-09T08:24:27.984Z,1010.7
2017-03-09T08:25:27.919Z,1010.68
2017-03-09T08:26:27.966Z,1010.71
2017-03-09T08:27:28.020Z,1010.67
2017-03-09T08:28:28.015Z,1010.71
2017-03-09T08:29:28.030Z,1010.74
2017-03-09T08:30:28.004Z,1010.78
2017-03-09T08:31:28.059Z,1010.78
2017-03-09T08:32:27.967Z,1010.79
2017-03-09T08:33:28.025Z,1010.79
2017-03-09T08:34:28.055Z,1010.71
2017-03-09T08:35:28.064Z,1010.75
2017-03-09T08:36:28.074Z,1010.72
2017-03-09T08:37:28.074Z,1010.7
2017-03-09T08:39:28.019Z,1010.74
2017-03-09T08:40:28.053Z,1010.74
2017-03-09T08:41:28.114Z,1010.79
2017-03-09T08:42:28.048Z,1010.74
2017-03-09T08:43:28.140Z,1010.7
2017-03-09T08:44:28.052Z,1010.76
2017-03-09T08:45:28.118Z,1010.73
2017-03-09T08:46:28.132Z,1010.78
2017-03-09T08:47:28.249Z,1010.79
2017-03-09T08:48:28.129Z,1010.79
2017-03-09T08:49:28.170Z,1010.77
2017-03-09T08:50:28.092Z,1010.76
2017-03-09T08:51:28.193Z,1010.74
2017-03-09T08:52:28.178Z,1010.8
2017-03-09T08:53:28.185Z,1010.75
2017-03-09T08:54:28.106Z,1010.76
2017-03-09T08:55:28.109Z,1010.77
2017-03-09T08:56:28.206Z,1010.75
2017-03-09T08:57:28.177Z,1010.72
2017-03-09T08:58:28.196Z,1010.74
2017-03-09T08:59:28.166Z,1010.65
2017-03-09T09:00:28.116Z,1010.7
2017-03-09T09:01:28.118Z,1010.68
2017-03-09T09:02:28.118Z,1010.73
2017-03-09T09:03:28.170Z,1010.7
2017-03-09T09:04:28.121Z,1010.7
2017-03-09T09:05:28.182Z,1010.67
2017-03-09T09:06:28.122Z,1010.66
2017-03-09T09:07:28.210Z,1010.67
2017-03-09T09:08:28.173Z,1010.63
2017-03-09T09:09:28.203Z,1010.62
2017-03-09T09:10:28.188Z,1010.62
2017-03-09T09:11:28.193Z,1010.65
2017-03-09T09:12:28.171Z,1010.65
2017-03-09T09:13:28.189Z,1010.63
2017-03-09T09:14:28.158Z,1010.66
2017-03-09T09:15:28.177Z,1010.68
2017-03-09T09:16:28.125Z,1010.64
2017-03-09T09:17:28.127Z,1010.64
2017-03-09T09:18:28.203Z,1010.6
2017-03-09T09:19:28.179Z,1010.62
2017-03-09T09:20:28.179Z,1010.66
2017-03-09T09:21:28.778Z,1010.64
2017-03-09T09:22:28.193Z,1010.68
2017-03-09T09:23:28.129Z,1010.6
2017-03-09T09:24:28.231Z,1010.69
2017-03-09T09:25:28.187Z,1010.64
2017-03-09T09:26:28.204Z,1010.64
2017-03-09T09:27:28.223Z,1010.66
2017-03-09T09:28:28.132Z,1010.61
2017-03-09T09:29:28.133Z,1010.64
2017-03-09T09:30:28.183Z,1010.65
2017-03-09T09:31:29.296Z,1010.69
2017-03-09T09:32:28.185Z,1010.67
2017-03-09T09:33:28.196Z,1010.69
2017-03-09T09:34:28.225Z,1010.73
2017-03-09T09:35:28.209Z,1010.73
2017-03-09T09:36:28.138Z,1010.72
2017-03-09T09:37:28.238Z,1010.73
2017-03-09T09:38:28.189Z,1010.72
2017-03-09T09:39:28.249Z,1010.68
2017-03-09T09:40:28.189Z,1010.67
2017-03-09T09:41:28.139Z,1010.71
2017-03-09T09:42:28.226Z,1010.68
2017-03-09T09:43:28.467Z,1010.69
2017-03-09T09:44:28.139Z,1010.68
2017-03-09T09:45:28.139Z,1010.68
2017-03-09T09:46:28.196Z,1010.68
2017-03-09T09:47:28.190Z,1010.72
2017-03-09T09:48:28.342Z,1010.67
2017-03-09T09:49:28.165Z,1010.69
2017-03-09T09:50:28.143Z,1010.68
2017-03-09T09:51:28.178Z,1010.79
2017-03-09T09:52:28.239Z,1010.76
2017-03-09T09:53:28.347Z,1010.72
2017-03-09T09:54:28.198Z,1010.64
2017-03-09T09:55:28.258Z,1010.62
2017-03-09T09:56:28.246Z,1010.64
2017-03-09T09:57:28.232Z,1010.64
2017-03-09T09:58:28.201Z,1010.6
2017-03-09T09:59:28.199Z,1010.57
2017-03-09T10:00:28.242Z,1010.62
2017-03-09T10:01:28.217Z,1010.61
2017-03-09T10:02:28.202Z,1010.59
2017-03-09T10:03:28.225Z,1010.62
2017-03-09T10:04:28.200Z,1010.59
2017-03-09T10:05:28.538Z,1010.61
2017-03-09T10:06:28.257Z,1010.55
2017-03-09T10:07:28.241Z,1010.48
2017-03-09T10:08:28.856Z,1010.54
2017-03-09T10:09:28.249Z,1010.47
2017-03-09T10:10:28.264Z,1010.48
2017-03-09T10:11:28.156Z,1010.52
2017-03-09T10:12:28.156Z,1010.53
2017-03-09T10:13:28.156Z,1010.53
2017-03-09T10:14:28.255Z,1010.52
2017-03-09T10:15:28.206Z,1010.53
2017-03-09T10:16:28.229Z,1010.52
2017-03-09T10:17:28.174Z,1010.54
2017-03-09T10:18:28.157Z,1010.5
2017-03-09T10:19:28.159Z,1010.52
2017-03-09T10:20:28.265Z,1010.49
2017-03-09T10:21:28.184Z,1010.47
2017-03-09T10:22:28.227Z,1010.49
2017-03-09T10:23:28.233Z,1010.35
2017-03-09T10:24:28.245Z,1010.36
2017-03-09T10:25:28.223Z,1010.31
2017-03-09T10:26:28.272Z,1010.37
2017-03-09T10:27:28.166Z,1010.33
2017-03-09T10:28:28.509Z,1010.37
2017-03-09T10:29:28.212Z,1010.36
2017-03-09T10:30:28.167Z,1010.36
2017-03-09T10:31:28.230Z,1010.44
2017-03-09T10:32:28.240Z,1010.37
2017-03-09T10:33:28.469Z,1010.44
2017-03-09T10:34:28.275Z,1010.46
2017-03-09T10:35:28.231Z,1010.46
2017-03-09T10:36:28.184Z,1010.48
2017-03-09T10:37:28.223Z,1010.4
2017-03-09T10:38:28.225Z,1010.39
2017-03-09T10:39:28.256Z,1010.4
2017-03-09T10:40:28.175Z,1010.39
2017-03-09T10:41:28.226Z,1010.37
2017-03-09T10:42:28.315Z,1010.36
2017-03-09T10:43:28.260Z,1010.39
2017-03-09T10:44:28.232Z,1010.37
2017-03-09T10:45:28.232Z,1010.32
2017-03-09T10:46:28.185Z,1010.31
2017-03-09T10:47:28.269Z,1010.3
2017-03-09T10:48:28.187Z,1010.31
2017-03-09T10:49:28.265Z,1010.28
2017-03-09T10:50:28.293Z,1010.27
2017-03-09T10:51:28.926Z,1010.28
2017-03-09T10:52:28.192Z,1010.25
2017-03-09T10:53:28.212Z,1010.24
2017-03-09T10:54:28.193Z,1010.28
2017-03-09T10:55:28.195Z,1010.31
2017-03-09T10:56:28.277Z,1010.32
2017-03-09T10:57:28.195Z,1010.29
2017-03-09T10:58:28.247Z,1010.31
2017-03-09T10:59:29.163Z,1010.33
2017-03-09T11:00:28.301Z,1010.38
2017-03-09T11:01:28.200Z,1010.39
2017-03-09T11:02:28.200Z,1010.38
2017-03-09T11:03:28.251Z,1010.42
2017-03-09T11:04:28.916Z,1010.33
2017-03-09T11:05:28.253Z,1010.4
2017-03-09T11:06:28.308Z,1010.42
2017-03-09T11:07:28.204Z,1010.35
2017-03-09T11:08:28.256Z,1010.41
2017-03-09T11:09:28.299Z,1010.44
2017-03-09T11:10:28.289Z,1010.45
2017-03-09T11:11:28.302Z,1010.48
2017-03-09T11:12:28.210Z,1010.46
2017-03-09T11:13:28.259Z,1010.44
2017-03-09T11:14:28.279Z,1010.47
2017-03-09T11:15:28.298Z,1010.5
2017-03-09T11:16:28.213Z,1010.5
2017-03-09T11:17:28.243Z,1010.41
2017-03-09T11:18:28.269Z,1010.45
2017-03-09T11:19:28.217Z,1010.45
2017-03-09T11:20:28.288Z,1010.43
2017-03-09T11:21:28.268Z,1010.39
2017-03-09T11:22:28.304Z,1010.4
2017-03-09T11:23:28.221Z,1010.49
2017-03-09T11:24:28.311Z,1010.42
2017-03-09T11:25:28.271Z,1010.42
2017-03-09T11:26:28.318Z,1010.41
2017-03-09T11:27:28.281Z,1010.4
2017-03-09T11:28:28.302Z,1010.39
2017-03-09T11:29:28.309Z,1010.41
2017-03-09T11:30:28.273Z,1010.39
2017-03-09T11:31:28.277Z,1010.38
2017-03-09T11:32:28.274Z,1010.36
2017-03-09T11:33:28.723Z,1010.38
2017-03-09T11:34:28.277Z,1010.48
2017-03-09T11:35:28.228Z,1010.42
2017-03-09T11:36:28.278Z,1010.49
2017-03-09T11:37:28.307Z,1010.49
2017-03-09T11:38:28.741Z,1010.48
2017-03-09T11:39:28.286Z,1010.47
2017-03-09T11:40:28.294Z,1010.38
2017-03-09T11:41:28.231Z,1010.38
2017-03-09T11:42:28.335Z,1010.35
2017-03-09T11:43:28.282Z,1010.41
2017-03-09T11:44:28.281Z,1010.36
2017-03-09T11:45:28.234Z,1010.4
2017-03-09T11:46:28.324Z,1010.43
2017-03-09T11:47:28.290Z,1010.43
2017-03-09T11:48:28.287Z,1010.4
2017-03-09T11:49:28.238Z,1010.4
2017-03-09T11:50:28.238Z,1010.41
2017-03-09T11:51:28.238Z,1010.44
2017-03-09T11:52:28.334Z,1010.44
2017-03-09T11:53:28.338Z,1010.44
2017-03-09T11:54:28.321Z,1010.48
2017-03-09T11:55:28.242Z,1010.48
2017-03-09T11:56:28.317Z,1010.48
2017-03-09T11:57:28.346Z,1010.37
2017-03-09T11:58:28.298Z,1010.37
2017-03-09T11:59:28.348Z,1010.39
2017-03-09T12:00:28.300Z,1010.39
2017-03-09T12:01:28.326Z,1010.28
2017-03-09T12:02:28.251Z,1010.28
2017-03-09T12:03:28.355Z,1010.24
2017-03-09T12:04:28.340Z,1010.21
2017-03-09T12:05:28.315Z,1010.23
2017-03-09T12:06:28.310Z,1010.26
2017-03-09T12:07:28.309Z,1010.21
2017-03-09T12:08:28.260Z,1010.22
2017-03-09T12:09:28.331Z,1010.19